createdAt,value
2022-07-30T00:01:13.900Z,19.86
2022-07-30T00:03:40.515Z,20.03
2022-07-30T00:06:07.095Z,20.09
2022-07-30T00:08:33.998Z,20.14
2022-07-30T00:11:00.534Z,20.02
2022-07-30T00:13:27.138Z,20.00
2022-07-30T00:15:53.651Z,20.10
2022-07-30T00:18:20.148Z,19.65
2022-07-30T00:20:48.845Z,19.68
2022-07-30T00:23:15.610Z,19.63
2022-07-30T00:25:42.112Z,19.62
2022-07-30T00:28:08.594Z,19.72
2022-07-30T00:30:35.232Z,19.85
2022-07-30T00:33:02.170Z,19.58
2022-07-30T00:35:28.937Z,19.62
2022-07-30T00:37:55.489Z,19.49
2022-07-30T00:40:22.152Z,19.56
2022-07-30T00:42:48.910Z,19.80
2022-07-30T00:45:17.262Z,19.67
2022-07-30T00:47:44.211Z,19.64
2022-07-30T00:50:12.438Z,19.74
2022-07-30T00:52:39.482Z,19.68
2022-07-30T00:55:09.365Z,19.52
2022-07-30T00:57:36.208Z,19.49
2022-07-30T01:00:05.194Z,19.67
2022-07-30T01:02:31.714Z,19.73
2022-07-30T01:04:58.269Z,19.83
2022-07-30T01:07:27.188Z,19.70
2022-07-30T01:09:53.924Z,19.64
2022-07-30T01:12:23.219Z,19.67
2022-07-30T01:14:49.851Z,19.72
2022-07-30T01:17:16.485Z,19.72
2022-07-30T01:19:53.767Z,19.75
2022-07-30T01:22:30.241Z,19.57
2022-07-30T01:25:25.604Z,19.33
2022-07-30T01:27:58.737Z,19.30
2022-07-30T01:30:29.898Z,19.35
2022-07-30T01:32:58.845Z,19.55
2022-07-30T01:35:28.046Z,19.47
2022-07-30T01:37:56.680Z,19.50
2022-07-30T01:40:25.266Z,19.09
2022-07-30T01:42:54.984Z,18.92
2022-07-30T01:45:24.284Z,18.89
2022-07-30T01:47:55.832Z,19.03
2022-07-30T01:50:22.875Z,19.07
2022-07-30T01:52:52.711Z,19.14
2022-07-30T01:55:25.830Z,19.22
2022-07-30T01:57:54.505Z,19.24
2022-07-30T02:00:22.665Z,19.12
2022-07-30T02:02:49.153Z,19.09
2022-07-30T02:05:15.835Z,19.08
2022-07-30T02:08:04.836Z,19.00
2022-07-30T02:10:36.529Z,19.03
2022-07-30T02:13:06.626Z,19.13
2022-07-30T02:15:43.326Z,19.16
2022-07-30T02:18:23.856Z,19.10
2022-07-30T02:21:07.600Z,19.20
2022-07-30T02:23:40.802Z,19.11
2022-07-30T02:26:09.995Z,19.18
2022-07-30T02:28:39.971Z,18.92
2022-07-30T02:31:17.519Z,18.46
2022-07-30T02:33:49.461Z,18.01
2022-07-30T02:36:18.628Z,18.12
2022-07-30T02:38:46.490Z,18.32
2022-07-30T02:41:13.609Z,18.20
2022-07-30T02:43:42.351Z,18.25
2022-07-30T02:46:11.715Z,18.09
2022-07-30T02:48:39.997Z,18.17
2022-07-30T02:51:08.636Z,18.35
2022-07-30T02:53:37.542Z,18.47
2022-07-30T02:56:07.001Z,18.49
2022-07-30T02:58:35.644Z,18.43
2022-07-30T03:01:03.223Z,18.42
2022-07-30T03:03:31.157Z,18.50
2022-07-30T03:05:59.548Z,18.59
2022-07-30T03:08:27.931Z,18.64
2022-07-30T03:10:56.206Z,18.59
2022-07-30T03:13:24.234Z,18.62
2022-07-30T03:15:52.850Z,18.68
2022-07-30T03:18:20.310Z,18.49
2022-07-30T03:20:50.385Z,18.34
2022-07-30T03:23:19.409Z,18.42
2022-07-30T03:25:50.955Z,18.34
2022-07-30T03:28:23.585Z,18.46
2022-07-30T03:30:52.475Z,18.50
2022-07-30T03:33:20.313Z,18.46
2022-07-30T03:35:49.278Z,18.38
2022-07-30T03:38:16.546Z,18.34
2022-07-30T03:40:44.671Z,18.39
2022-07-30T03:43:32.533Z,18.18
2022-07-30T03:46:00.988Z,18.01
2022-07-30T03:48:28.160Z,17.94
2022-07-30T03:50:55.619Z,17.97
2022-07-30T03:53:25.018Z,18.00
2022-07-30T03:55:53.194Z,17.98
2022-07-30T03:58:19.836Z,18.04
2022-07-30T04:00:51.030Z,17.92
2022-07-30T04:03:28.862Z,17.70
2022-07-30T04:05:55.411Z,17.93
2022-07-30T04:08:22.087Z,18.00
2022-07-30T04:10:49.602Z,18.16
2022-07-30T04:13:16.281Z,18.15
2022-07-30T04:16:36.916Z,18.00
2022-07-30T04:18:47.627Z,17.95
2022-07-30T04:21:18.071Z,18.07
2022-07-30T04:24:02.278Z,17.47
2022-07-30T04:26:33.701Z,17.67
2022-07-30T04:29:01.155Z,17.67
2022-07-30T04:31:28.945Z,17.67
2022-07-30T04:33:55.611Z,17.60
2022-07-30T04:36:30.756Z,17.78
2022-07-30T04:38:58.238Z,17.11
2022-07-30T04:41:25.482Z,16.89
2022-07-30T04:43:52.724Z,16.97
2022-07-30T04:46:19.266Z,16.98
2022-07-30T04:48:48.141Z,17.16
2022-07-30T04:51:24.216Z,17.24
2022-07-30T04:53:52.360Z,17.36
2022-07-30T04:56:21.079Z,17.40
2022-07-30T04:58:48.220Z,17.51
2022-07-30T05:01:40.907Z,17.63
2022-07-30T05:04:10.618Z,17.62
2022-07-30T05:06:37.992Z,17.63
2022-07-30T05:09:04.706Z,17.59
2022-07-30T05:11:31.266Z,17.73
2022-07-30T05:13:58.122Z,17.74
2022-07-30T05:16:24.990Z,17.64
2022-07-30T05:18:51.781Z,17.72
2022-07-30T05:21:18.413Z,17.68
2022-07-30T05:23:50.199Z,17.70
2022-07-30T05:26:21.287Z,17.94
2022-07-30T05:28:53.637Z,17.99
2022-07-30T05:31:22.107Z,18.09
2022-07-30T05:33:49.103Z,18.13
2022-07-30T05:36:15.703Z,18.02
2022-07-30T05:38:42.209Z,17.97
2022-07-30T05:41:30.816Z,18.05
2022-07-30T05:43:55.756Z,18.03
2022-07-30T05:46:23.241Z,18.01
2022-07-30T05:48:49.915Z,17.91
2022-07-30T05:51:16.925Z,17.99
2022-07-30T05:53:43.413Z,17.96
2022-07-30T05:56:09.879Z,18.05
2022-07-30T05:58:36.541Z,18.28
2022-07-30T06:01:03.027Z,18.39
2022-07-30T06:03:29.527Z,18.34
2022-07-30T06:05:56.129Z,18.37
2022-07-30T06:08:22.769Z,18.42
2022-07-30T06:10:49.270Z,18.49
2022-07-30T06:13:15.729Z,18.35
2022-07-30T06:15:42.314Z,18.47
2022-07-30T06:18:08.824Z,18.56
2022-07-30T06:20:35.311Z,18.60
2022-07-30T06:23:01.936Z,18.69
2022-07-30T06:25:28.471Z,18.70
2022-07-30T06:27:55.030Z,18.57
2022-07-30T06:30:21.562Z,18.66
2022-07-30T06:32:57.632Z,18.67
2022-07-30T06:35:24.106Z,18.53
2022-07-30T06:38:05.680Z,18.53
2022-07-30T06:40:34.562Z,18.54
2022-07-30T06:43:01.067Z,18.53
2022-07-30T06:45:27.650Z,18.62
2022-07-30T06:47:58.736Z,18.80
2022-07-30T06:50:25.902Z,18.87
2022-07-30T06:52:52.639Z,18.79
2022-07-30T06:55:19.250Z,18.92
2022-07-30T06:57:45.754Z,18.85
2022-07-30T07:00:12.987Z,18.92
2022-07-30T07:02:39.532Z,19.16
2022-07-30T07:05:07.383Z,19.11
2022-07-30T07:07:42.348Z,19.11
2022-07-30T07:10:13.096Z,19.30
2022-07-30T07:12:39.594Z,19.29
2022-07-30T07:15:06.752Z,19.42
2022-07-30T07:17:33.257Z,19.48
2022-07-30T07:20:02.581Z,19.54
2022-07-30T07:22:29.671Z,19.48
2022-07-30T07:24:56.348Z,19.15
2022-07-30T07:27:22.879Z,19.28
2022-07-30T07:30:05.133Z,19.51
2022-07-30T07:32:33.622Z,19.66
2022-07-30T07:35:00.161Z,19.50
2022-07-30T07:37:27.024Z,19.62
2022-07-30T07:39:53.666Z,19.70
2022-07-30T07:42:20.181Z,19.79
2022-07-30T07:44:46.633Z,19.73
2022-07-30T07:47:13.154Z,19.80
2022-07-30T07:49:39.665Z,20.02
2022-07-30T07:52:06.622Z,19.84
2022-07-30T07:54:33.289Z,19.71
2022-07-30T07:57:03.253Z,19.77
2022-07-30T07:59:40.041Z,19.76
2022-07-30T08:02:08.084Z,19.86
2022-07-30T08:04:35.401Z,20.21
2022-07-30T08:07:02.402Z,20.30
2022-07-30T08:09:40.599Z,20.23
2022-07-30T08:12:11.415Z,20.27
2022-07-30T08:14:37.916Z,20.34
2022-07-30T08:17:04.728Z,20.22
2022-07-30T08:19:31.464Z,20.36
2022-07-30T08:21:59.611Z,20.50
2022-07-30T08:24:26.853Z,20.70
2022-07-30T08:26:53.618Z,20.76
2022-07-30T08:29:20.175Z,20.70
2022-07-30T08:31:46.753Z,20.63
2022-07-30T08:34:13.710Z,20.63
2022-07-30T08:36:40.798Z,20.92
2022-07-30T08:39:07.419Z,21.04
2022-07-30T08:41:38.940Z,21.36
2022-07-30T08:44:12.749Z,21.33
2022-07-30T08:46:47.025Z,21.39
2022-07-30T08:49:16.352Z,21.43
2022-07-30T08:51:44.215Z,21.56
2022-07-30T08:54:13.027Z,21.80
2022-07-30T08:56:41.014Z,21.87
2022-07-30T08:59:17.486Z,21.78
2022-07-30T09:01:44.126Z,21.78
2022-07-30T09:04:10.665Z,22.02
2022-07-30T09:06:37.704Z,21.98
2022-07-30T09:09:04.267Z,21.96
2022-07-30T09:11:34.794Z,22.19
2022-07-30T09:14:14.829Z,21.97
2022-07-30T09:16:42.033Z,22.08
2022-07-30T09:19:17.438Z,22.24
2022-07-30T09:21:58.536Z,22.36
2022-07-30T09:24:25.669Z,22.50
2022-07-30T09:27:07.227Z,22.71
2022-07-30T09:29:34.737Z,22.62
2022-07-30T09:32:09.427Z,22.66
2022-07-30T09:34:38.433Z,23.21
2022-07-30T09:37:17.566Z,23.26
2022-07-30T09:39:59.319Z,23.22
2022-07-30T09:42:28.804Z,23.48
2022-07-30T09:45:09.825Z,23.29
2022-07-30T09:47:42.138Z,23.70
2022-07-30T09:50:11.293Z,23.65
2022-07-30T09:52:44.037Z,23.64
2022-07-30T09:55:28.522Z,23.29
2022-07-30T09:57:58.866Z,23.46
2022-07-30T10:00:27.430Z,23.67
2022-07-30T10:02:58.172Z,23.97
2022-07-30T10:05:25.839Z,23.80
2022-07-30T10:07:54.773Z,24.32
2022-07-30T10:10:31.164Z,24.34
2022-07-30T10:13:04.240Z,24.59
2022-07-30T10:15:34.691Z,24.74
2022-07-30T10:18:06.345Z,24.72
2022-07-30T10:20:33.681Z,24.76
2022-07-30T10:23:08.345Z,24.46
2022-07-30T10:25:37.179Z,24.68
2022-07-30T10:28:17.658Z,25.03
2022-07-30T10:30:45.291Z,24.68
2022-07-30T10:33:36.547Z,24.95
2022-07-30T10:35:59.180Z,25.17
2022-07-30T10:38:30.224Z,25.06
2022-07-30T10:41:02.687Z,25.24
2022-07-30T10:44:04.834Z,24.97
2022-07-30T10:46:43.531Z,25.13
2022-07-30T10:49:18.595Z,24.54
2022-07-30T10:51:50.956Z,25.14
2022-07-30T10:54:36.523Z,25.41
2022-07-30T10:57:14.974Z,25.27
2022-07-30T11:00:03.732Z,25.56
2022-07-30T11:02:35.503Z,25.65
2022-07-30T11:05:17.795Z,26.01
2022-07-30T11:07:47.623Z,25.59
2022-07-30T11:10:44.081Z,26.01
2022-07-30T11:13:10.817Z,26.17
2022-07-30T11:15:56.947Z,25.69
2022-07-30T11:18:28.658Z,26.46
2022-07-30T11:21:16.553Z,26.70
2022-07-30T11:23:45.709Z,26.77
2022-07-30T11:26:32.022Z,26.92
2022-07-30T11:28:58.806Z,26.85
2022-07-30T11:31:54.848Z,26.57
2022-07-30T11:34:24.152Z,26.68
2022-07-30T11:37:22.480Z,26.51
2022-07-30T11:40:02.247Z,26.88
2022-07-30T11:42:34.971Z,27.18
2022-07-30T11:45:16.685Z,26.57
2022-07-30T11:47:49.043Z,26.44
2022-07-30T11:50:20.185Z,26.27
2022-07-30T11:53:03.071Z,25.89
2022-07-30T11:55:42.588Z,25.92
2022-07-30T11:58:29.351Z,26.43
2022-07-30T12:00:58.278Z,26.62
2022-07-30T12:03:29.874Z,26.52
2022-07-30T12:05:56.795Z,26.52
2022-07-30T12:08:35.356Z,27.02
2022-07-30T12:11:03.104Z,26.90
2022-07-30T12:13:44.471Z,27.17
2022-07-30T12:16:17.453Z,27.68
2022-07-30T12:18:45.498Z,27.92
2022-07-30T12:21:12.850Z,28.21
2022-07-30T12:23:42.036Z,28.19
2022-07-30T12:26:08.834Z,28.19
2022-07-30T12:28:36.273Z,28.22
2022-07-30T12:31:04.428Z,28.09
2022-07-30T12:33:31.545Z,28.36
2022-07-30T12:36:00.268Z,28.41
2022-07-30T12:38:28.411Z,28.57
2022-07-30T12:40:54.855Z,28.68
2022-07-30T12:43:44.007Z,28.61
2022-07-30T12:46:15.028Z,28.26
2022-07-30T12:48:56.103Z,28.31
2022-07-30T12:51:29.074Z,28.72
2022-07-30T12:53:57.095Z,28.63
2022-07-30T12:56:26.664Z,28.74
2022-07-30T12:58:54.842Z,28.40
2022-07-30T13:01:42.516Z,28.76
2022-07-30T13:04:10.429Z,29.29
2022-07-30T13:06:38.182Z,29.20
2022-07-30T13:09:05.499Z,29.06
2022-07-30T13:11:41.377Z,28.73
2022-07-30T13:14:09.256Z,28.86
2022-07-30T13:16:37.223Z,29.09
2022-07-30T13:19:06.201Z,29.47
2022-07-30T13:21:35.827Z,29.96
2022-07-30T13:24:02.754Z,29.72
2022-07-30T13:26:30.090Z,28.93
2022-07-30T13:29:01.653Z,28.39
2022-07-30T13:31:28.822Z,28.30
2022-07-30T13:34:12.288Z,27.92
2022-07-30T13:36:39.226Z,27.48
2022-07-30T13:39:05.718Z,27.29
2022-07-30T13:41:33.261Z,27.38
2022-07-30T13:44:00.985Z,27.01
2022-07-30T13:46:29.345Z,27.69
2022-07-30T13:48:56.682Z,28.07
2022-07-30T13:51:23.442Z,28.20
2022-07-30T13:53:50.220Z,28.68
2022-07-30T13:56:16.939Z,28.42
2022-07-30T13:58:46.454Z,28.80
2022-07-30T14:01:17.682Z,29.23
2022-07-30T14:03:49.889Z,29.04
2022-07-30T14:06:17.125Z,28.95
2022-07-30T14:08:45.796Z,28.25
2022-07-30T14:11:13.136Z,28.56
2022-07-30T14:13:48.390Z,28.84
2022-07-30T14:16:43.749Z,28.91
2022-07-30T14:19:05.701Z,29.01
2022-07-30T14:21:35.583Z,29.08
2022-07-30T14:24:05.656Z,28.84
2022-07-30T14:26:36.897Z,29.07
2022-07-30T14:29:07.160Z,29.14
2022-07-30T14:31:35.055Z,29.06
2022-07-30T14:34:02.659Z,28.79
2022-07-30T14:36:30.197Z,28.83
2022-07-30T14:38:58.098Z,29.17
2022-07-30T14:41:25.911Z,29.27
2022-07-30T14:43:53.520Z,29.25
2022-07-30T14:46:20.872Z,29.13
2022-07-30T14:48:47.797Z,29.02
2022-07-30T14:51:20.727Z,28.79
2022-07-30T14:53:52.180Z,29.20
2022-07-30T14:56:19.392Z,28.95
2022-07-30T14:58:46.222Z,29.22
2022-07-30T15:01:15.669Z,29.39
2022-07-30T15:03:44.089Z,29.41
2022-07-30T15:06:12.599Z,29.67
2022-07-30T15:08:39.314Z,29.24
2022-07-30T15:11:07.855Z,28.90
2022-07-30T15:13:36.362Z,28.97
2022-07-30T15:16:03.126Z,28.79
2022-07-30T15:18:29.856Z,28.80
2022-07-30T15:20:56.460Z,29.07
2022-07-30T15:23:23.203Z,28.84
2022-07-30T15:25:49.864Z,28.19
2022-07-30T15:28:16.577Z,28.22
2022-07-30T15:30:43.360Z,27.91
2022-07-30T15:33:09.836Z,27.89
2022-07-30T15:35:36.609Z,27.66
2022-07-30T15:38:03.642Z,28.09
2022-07-30T15:40:30.564Z,28.51
2022-07-30T15:42:57.098Z,28.55
2022-07-30T15:45:24.709Z,28.66
2022-07-30T15:47:51.859Z,28.56
2022-07-30T15:50:18.562Z,28.51
2022-07-30T15:52:45.281Z,28.52
2022-07-30T15:55:13.160Z,28.52
2022-07-30T15:57:40.802Z,28.28
2022-07-30T16:00:10.377Z,28.24
2022-07-30T16:02:37.896Z,28.27
2022-07-30T16:05:05.116Z,28.10
2022-07-30T16:07:31.640Z,28.44
2022-07-30T16:09:58.172Z,28.51
2022-07-30T16:12:24.909Z,28.21
2022-07-30T16:14:52.054Z,28.15
2022-07-30T16:17:18.792Z,27.86
2022-07-30T16:19:45.373Z,27.90
2022-07-30T16:22:15.034Z,27.76
2022-07-30T16:24:50.548Z,27.80
2022-07-30T16:27:17.174Z,27.89
2022-07-30T16:29:43.751Z,27.60
2022-07-30T16:32:10.429Z,27.48
2022-07-30T16:34:37.045Z,27.50
2022-07-30T16:37:04.342Z,27.53
2022-07-30T16:39:31.120Z,27.43
2022-07-30T16:41:57.661Z,27.54
2022-07-30T16:44:24.109Z,27.38
2022-07-30T16:46:50.607Z,27.10
2022-07-30T16:49:17.243Z,27.04
2022-07-30T16:51:44.031Z,27.26
2022-07-30T16:54:11.562Z,27.13
2022-07-30T16:56:38.041Z,27.19
2022-07-30T16:59:04.574Z,26.99
2022-07-30T17:01:32.218Z,26.99
2022-07-30T17:03:59.504Z,27.10
2022-07-30T17:06:26.252Z,27.00
2022-07-30T17:08:52.710Z,27.14
2022-07-30T17:11:47.780Z,27.43
2022-07-30T17:14:06.128Z,27.16
2022-07-30T17:16:32.672Z,27.32
2022-07-30T17:18:59.287Z,27.36
2022-07-30T17:21:26.024Z,27.17
2022-07-30T17:23:52.618Z,26.83
2022-07-30T17:26:19.162Z,26.80
2022-07-30T17:28:45.656Z,27.02
2022-07-30T17:31:12.629Z,26.46
2022-07-30T17:33:39.171Z,26.33
2022-07-30T17:36:08.424Z,26.49
2022-07-30T17:38:35.405Z,26.62
2022-07-30T17:41:02.336Z,26.66
2022-07-30T17:43:28.907Z,26.25
2022-07-30T17:45:55.462Z,26.27
2022-07-30T17:48:21.985Z,26.15
2022-07-30T17:50:48.727Z,25.97
2022-07-30T17:53:15.231Z,26.15
2022-07-30T17:55:41.986Z,26.29
2022-07-30T17:58:24.515Z,26.13
2022-07-30T18:00:51.153Z,26.15
2022-07-30T18:03:17.890Z,26.20
2022-07-30T18:05:44.558Z,26.17
2022-07-30T18:08:11.135Z,25.93
2022-07-30T18:10:37.677Z,26.13
2022-07-30T18:13:26.022Z,26.17
2022-07-30T18:15:50.935Z,25.75
2022-07-30T18:18:17.408Z,25.77
2022-07-30T18:20:48.382Z,25.80
2022-07-30T18:23:19.660Z,25.76
2022-07-30T18:25:51.566Z,25.89
2022-07-30T18:28:18.644Z,25.79
2022-07-30T18:30:45.224Z,25.78
2022-07-30T18:33:11.806Z,25.56
2022-07-30T18:35:38.537Z,25.70
2022-07-30T18:38:05.349Z,25.65
2022-07-30T18:40:32.312Z,25.53
2022-07-30T18:42:59.495Z,25.47
2022-07-30T18:45:28.629Z,25.28
2022-07-30T18:47:55.976Z,25.34
2022-07-30T18:50:24.103Z,25.38
2022-07-30T18:52:51.194Z,25.09
2022-07-30T18:55:20.813Z,25.00
2022-07-30T18:57:47.949Z,24.75
2022-07-30T19:00:34.464Z,24.93
2022-07-30T19:03:02.109Z,24.90
2022-07-30T19:05:29.129Z,24.91
2022-07-30T19:07:57.909Z,25.13
2022-07-30T19:10:26.384Z,24.95
2022-07-30T19:12:53.869Z,24.74
2022-07-30T19:15:20.754Z,24.68
2022-07-30T19:17:48.954Z,24.52
2022-07-30T19:20:15.707Z,24.44
2022-07-30T19:22:42.328Z,24.42
2022-07-30T19:25:10.425Z,24.53
2022-07-30T19:27:37.305Z,24.27
2022-07-30T19:30:04.734Z,24.41
2022-07-30T19:32:31.514Z,24.21
2022-07-30T19:34:58.142Z,24.41
2022-07-30T19:37:24.616Z,24.41
2022-07-30T19:39:58.878Z,24.24
2022-07-30T19:42:41.296Z,24.28
2022-07-30T19:45:11.753Z,24.12
2022-07-30T19:47:39.607Z,24.21
2022-07-30T19:50:10.316Z,24.14
2022-07-30T19:52:38.279Z,24.09
2022-07-30T19:55:30.515Z,24.19
2022-07-30T19:57:54.183Z,24.19
2022-07-30T20:00:25.013Z,24.11
2022-07-30T20:02:52.861Z,24.01
2022-07-30T20:05:20.049Z,23.92
2022-07-30T20:07:47.675Z,23.91
2022-07-30T20:10:15.734Z,23.91
2022-07-30T20:12:42.764Z,23.92
2022-07-30T20:15:16.344Z,23.84
2022-07-30T20:17:43.072Z,23.74
2022-07-30T20:20:10.424Z,23.81
2022-07-30T20:22:37.083Z,23.84
2022-07-30T20:25:06.222Z,23.85
2022-07-30T20:27:37.125Z,23.77
2022-07-30T20:30:05.792Z,23.57
2022-07-30T20:32:32.282Z,23.52
2022-07-30T20:34:58.850Z,23.57
2022-07-30T20:37:27.359Z,23.58
2022-07-30T20:39:54.869Z,23.51
2022-07-30T20:42:23.859Z,23.48
2022-07-30T20:44:53.213Z,23.57
2022-07-30T20:47:34.910Z,23.50
2022-07-30T20:50:10.421Z,23.28
2022-07-30T20:52:40.124Z,23.28
2022-07-30T20:55:14.442Z,23.26
2022-07-30T20:57:57.285Z,23.31
2022-07-30T21:00:30.160Z,23.17
2022-07-30T21:02:56.653Z,23.23
2022-07-30T21:05:23.366Z,23.27
2022-07-30T21:07:55.033Z,23.20
2022-07-30T21:10:23.727Z,23.12
2022-07-30T21:12:53.340Z,23.15
2022-07-30T21:15:26.332Z,22.97
2022-07-30T21:17:53.056Z,22.78
2022-07-30T21:20:27.705Z,22.92
2022-07-30T21:22:55.571Z,23.03
2022-07-30T21:25:23.473Z,23.00
2022-07-30T21:28:02.880Z,22.96
2022-07-30T21:30:31.110Z,23.04
2022-07-30T21:32:58.161Z,22.96
2022-07-30T21:35:25.006Z,22.89
2022-07-30T21:37:58.354Z,22.77
2022-07-30T21:40:25.031Z,22.83
2022-07-30T21:42:51.690Z,22.85
2022-07-30T21:45:19.425Z,22.89
2022-07-30T21:47:47.955Z,22.88
2022-07-30T21:50:15.954Z,22.90
2022-07-30T21:52:43.756Z,22.81
2022-07-30T21:55:13.377Z,22.61
2022-07-30T21:57:40.292Z,22.64
2022-07-30T22:00:14.890Z,22.49
2022-07-30T22:02:53.035Z,22.36
2022-07-30T22:05:21.694Z,22.29
2022-07-30T22:07:50.036Z,22.35
2022-07-30T22:10:21.343Z,22.43
2022-07-30T22:12:48.588Z,22.27
2022-07-30T22:15:15.323Z,22.31
2022-07-30T22:17:58.706Z,22.26
2022-07-30T22:20:28.671Z,22.35
2022-07-30T22:22:56.848Z,22.44
2022-07-30T22:25:23.688Z,22.44
2022-07-30T22:28:08.194Z,22.47
2022-07-30T22:30:34.709Z,22.61
2022-07-30T22:33:09.093Z,22.54
2022-07-30T22:35:36.720Z,22.45
2022-07-30T22:38:06.642Z,22.50
2022-07-30T22:40:33.787Z,22.50
2022-07-30T22:43:04.092Z,22.57
2022-07-30T22:45:45.778Z,22.56
2022-07-30T22:48:16.345Z,22.46
2022-07-30T22:50:42.898Z,22.48
2022-07-30T22:53:56.892Z,22.49
2022-07-30T22:55:56.452Z,22.40
2022-07-30T22:58:26.123Z,22.41
2022-07-30T23:00:53.165Z,22.42
2022-07-30T23:03:19.761Z,22.41
2022-07-30T23:05:56.189Z,22.41
2022-07-30T23:08:30.105Z,22.15
2022-07-30T23:10:59.776Z,21.88
2022-07-30T23:13:27.219Z,21.93
2022-07-30T23:15:53.931Z,21.96
2022-07-30T23:18:20.654Z,21.93
2022-07-30T23:20:47.169Z,22.01
2022-07-30T23:23:13.631Z,21.97
2022-07-30T23:25:40.588Z,21.86
2022-07-30T23:28:07.150Z,21.91
2022-07-30T23:30:34.429Z,21.81
2022-07-30T23:33:01.644Z,21.84
2022-07-30T23:35:28.123Z,21.81
2022-07-30T23:37:54.665Z,21.77
2022-07-30T23:40:21.274Z,21.87
2022-07-30T23:42:50.147Z,21.88
2022-07-30T23:45:17.647Z,21.75
2022-07-30T23:47:54.624Z,21.71
2022-07-30T23:50:30.077Z,21.69
2022-07-30T23:52:56.902Z,21.77
2022-07-30T23:55:23.589Z,21.65
2022-07-30T23:57:50.165Z,21.53
